Time;durP1;ratioP1;P1;durP2;ratioP2;P2;SDS_P1;SDS_P2;PMS_P1;PMS_P2;Temp;Humidity;BMP_temperature;BMP_pressure;BME280_temperature;BME280_humidity;BME280_pressure;Samples;Min_cycle;Max_cycle;Signal;HPM_P1;HPM_P2
2021/11/05 00:01:54;;;;;;;7.65;5.65;;;19.50;64.00;;;;;;6220591;23;20580;-81
2021/11/05 00:04:20;;;;;;;6.82;5.07;;;19.50;64.00;;;;;;6220667;23;20268;-81
2021/11/05 00:06:46;;;;;;;7.47;5.65;;;19.60;63.90;;;;;;6247429;23;20187;-81
2021/11/05 00:09:11;;;;;;;9.50;5.78;;;19.50;64.10;;;;;;6220338;23;20193;-80
2021/11/05 00:11:37;;;;;;;9.02;5.78;;;19.50;64.00;;;;;;6247973;23;20157;-81
2021/11/05 00:14:03;;;;;;;6.88;5.18;;;19.50;63.90;;;;;;6195615;23;20156;-80
2021/11/05 00:16:28;;;;;;;7.57;5.88;;;19.50;64.10;;;;;;6220402;23;20138;-81
2021/11/05 00:18:54;;;;;;;7.90;5.95;;;19.50;64.80;;;;;;6247217;23;20186;-81
2021/11/05 00:21:20;;;;;;;7.70;5.57;;;19.50;64.00;;;;;;6195518;23;20169;-81
2021/11/05 00:23:45;;;;;;;8.77;6.43;;;19.50;64.10;;;;;;6247148;23;20129;-81
2021/11/05 00:26:11;;;;;;;9.02;5.22;;;19.50;64.10;;;;;;6247434;23;20219;-81
2021/11/05 00:28:37;;;;;;;7.65;5.43;;;19.50;64.10;;;;;;6220773;23;20130;-81
2021/11/05 00:31:02;;;;;;;8.63;5.72;;;19.50;63.80;;;;;;6247473;23;20137;-81
2021/11/05 00:33:28;;;;;;;6.72;5.22;;;19.50;63.80;;;;;;6247153;23;20133;-81
2021/11/05 00:35:54;;;;;;;7.50;5.53;;;19.50;63.60;;;;;;6195705;23;20157;-81
2021/11/05 00:38:19;;;;;;;7.72;5.85;;;19.50;63.60;;;;;;6247113;23;20134;-82
2021/11/05 00:40:45;;;;;;;7.38;5.38;;;19.50;63.60;;;;;;6196162;23;20172;-81
2021/11/05 00:43:11;;;;;;;7.20;5.65;;;19.50;63.40;;;;;;6195786;23;20149;-81
2021/11/05 00:45:37;;;;;;;7.65;5.50;;;19.50;63.60;;;;;;6195594;23;20204;-81
2021/11/05 00:48:02;;;;;;;8.18;5.82;;;19.50;63.70;;;;;;6220237;23;20200;-81
2021/11/05 00:50:28;;;;;;;7.07;5.40;;;19.50;64.00;;;;;;6220238;23;20130;-81
2021/11/05 00:52:54;;;;;;;8.77;5.20;;;19.50;63.60;;;;;;6195897;23;20148;-81
2021/11/05 00:55:20;;;;;;;7.82;5.35;;;19.50;63.40;;;;;;6247195;23;20144;-81
2021/11/05 00:57:46;;;;;;;9.82;5.65;;;19.50;63.40;;;;;;6219829;23;20212;-81
2021/11/05 01:00:13;;;;;;;8.85;5.90;;;19.50;63.20;;;;;;6246874;23;20129;-81
2021/11/05 01:02:40;;;;;;;8.13;5.88;;;19.50;63.10;;;;;;6220334;23;20134;-81
2021/11/05 01:05:07;;;;;;;7.57;5.50;;;19.50;63.10;;;;;;6246765;23;20169;-81
2021/11/05 01:07:33;;;;;;;7.55;5.53;;;19.50;63.00;;;;;;6220415;23;20591;-81
2021/11/05 01:09:58;;;;;;;7.47;5.85;;;19.50;63.10;;;;;;6220321;23;20129;-81
2021/11/05 01:12:24;;;;;;;7.72;5.53;;;19.50;63.00;;;;;;6246845;23;20213;-81
2021/11/05 01:14:50;;;;;;;6.63;5.40;;;19.50;62.20;;;;;;6220072;23;20149;-81
2021/11/05 01:17:16;;;;;;;8.00;5.90;;;19.50;62.60;;;;;;6220524;23;20472;-81
2021/11/05 01:19:42;;;;;;;6.68;5.00;;;19.50;63.20;;;;;;6246689;23;20140;-81
2021/11/05 01:22:08;;;;;;;8.77;5.80;;;19.50;62.60;;;;;;6246787;23;20140;-81
2021/11/05 01:24:33;;;;;;;6.43;5.10;;;19.50;63.00;;;;;;6220605;23;20220;-81
2021/11/05 01:26:59;;;;;;;9.95;5.53;;;19.50;62.70;;;;;;6246587;23;20165;-81
2021/11/05 01:29:25;;;;;;;7.88;5.68;;;19.50;62.50;;;;;;6219854;23;20469;-81
2021/11/05 01:31:52;;;;;;;8.73;6.05;;;19.50;63.10;;;;;;6246609;23;20134;-81
2021/11/05 01:34:18;;;;;;;7.53;5.35;;;19.50;63.30;;;;;;6220187;23;20570;-81
2021/11/05 01:36:44;;;;;;;9.30;5.63;;;19.50;63.20;;;;;;6220314;23;20569;-81
2021/11/05 01:39:10;;;;;;;7.38;5.43;;;19.50;63.50;;;;;;6219551;23;20130;-80
2021/11/05 01:41:38;;;;;;;7.28;5.18;;;19.40;63.80;;;;;;6220566;23;20146;-81
2021/11/05 01:44:04;;;;;;;6.90;5.45;;;19.50;64.10;;;;;;6219846;23;20152;-81
2021/11/05 01:46:30;;;;;;;7.45;5.43;;;19.50;63.10;;;;;;6246283;23;20197;-81
2021/11/05 01:48:55;;;;;;;7.13;5.45;;;19.40;63.40;;;;;;6219743;23;20133;-81
2021/11/05 01:51:21;;;;;;;7.97;5.53;;;19.40;63.50;;;;;;6219842;23;20130;-81
2021/11/05 01:53:47;;;;;;;9.13;5.40;;;19.40;63.90;;;;;;6219817;23;20134;-81
2021/11/05 01:56:13;;;;;;;6.90;5.40;;;19.50;63.80;;;;;;6220063;23;20144;-81
2021/11/05 01:58:38;;;;;;;8.00;5.43;;;19.40;63.90;;;;;;6219530;23;20130;-81
2021/11/05 02:01:04;;;;;;;7.05;5.15;;;19.40;63.60;;;;;;6219591;23;20149;-81
2021/11/05 02:03:30;;;;;;;7.63;5.28;;;19.40;64.10;;;;;;6219723;23;20149;-81
2021/11/05 02:05:56;;;;;;;6.80;4.93;;;19.40;63.80;;;;;;6219473;23;20176;-81
2021/11/05 02:08:21;;;;;;;7.82;5.68;;;19.40;63.90;;;;;;6189549;23;20292;-81
2021/11/05 02:10:49;;;;;;;7.07;5.30;;;19.40;63.90;;;;;;6214307;23;20150;-81
2021/11/05 02:13:14;;;;;;;8.05;5.28;;;19.40;64.00;;;;;;6214331;23;20143;-81
2021/11/05 02:15:40;;;;;;;7.45;5.47;;;19.40;64.10;;;;;;6214919;23;20146;-81
2021/11/05 02:18:07;;;;;;;7.97;5.80;;;19.40;64.00;;;;;;6214454;23;20134;-81
2021/11/05 02:20:33;;;;;;;7.68;5.45;;;19.40;64.80;;;;;;6189458;23;20149;-81
2021/11/05 02:22:59;;;;;;;6.80;5.00;;;19.40;64.00;;;;;;6189268;23;20146;-81
2021/11/05 02:25:24;;;;;;;7.55;5.43;;;19.30;64.20;;;;;;6214229;23;20170;-81
2021/11/05 02:27:51;;;;;;;7.05;5.32;;;19.40;63.70;;;;;;6216182;23;20138;-81
2021/11/05 02:30:17;;;;;;;7.93;5.20;;;19.40;64.10;;;;;;6215100;23;20153;-81
2021/11/05 02:32:43;;;;;;;7.68;5.63;;;19.40;63.80;;;;;;6214303;23;20134;-81
2021/11/05 02:35:10;;;;;;;7.10;5.13;;;19.40;64.20;;;;;;6189232;23;20188;-81
2021/11/05 02:37:36;;;;;;;7.75;5.30;;;19.40;64.10;;;;;;6189396;23;20150;-81
2021/11/05 02:40:02;;;;;;;7.28;5.15;;;19.40;63.80;;;;;;6214273;23;20585;-81
2021/11/05 02:42:28;;;;;;;6.38;5.10;;;19.40;63.60;;;;;;6214281;23;20141;-81
2021/11/05 02:44:54;;;;;;;6.75;5.40;;;19.40;63.90;;;;;;6214194;23;20138;-80
2021/11/05 02:47:27;;;;;;;6.45;5.07;;;19.40;64.50;;;;;;6214294;23;20138;-81
2021/11/05 02:49:59;;;;;;;7.07;5.13;;;19.40;64.20;;;;;;6214102;23;20134;-81
2021/11/05 02:52:24;;;;;;;6.93;5.22;;;19.40;63.90;;;;;;6191069;23;20150;-81
2021/11/05 02:54:50;;;;;;;7.53;5.35;;;19.40;63.80;;;;;;6215592;23;20219;-81
2021/11/05 02:57:16;;;;;;;7.00;4.97;;;19.40;63.40;;;;;;6214107;23;20134;-81
2021/11/05 02:59:42;;;;;;;8.13;5.03;;;19.40;63.80;;;;;;6215582;23;20141;-81
2021/11/05 03:02:07;;;;;;;6.90;5.25;;;19.30;63.10;;;;;;6189286;23;20635;-81
2021/11/05 03:04:33;;;;;;;6.40;4.85;;;19.30;63.00;;;;;;6213852;23;20146;-81
2021/11/05 03:07:00;;;;;;;6.63;5.20;;;19.40;63.40;;;;;;6189743;23;20189;-81
2021/11/05 03:09:30;;;;;;;7.15;5.40;;;19.40;63.00;;;;;;6213804;23;20231;-81
2021/11/05 03:11:56;;;;;;;7.05;5.20;;;19.40;62.70;;;;;;6215540;23;20181;-81
2021/11/05 03:14:22;;;;;;;5.95;4.90;;;19.40;62.70;;;;;;6214064;23;20509;-81
2021/11/05 03:16:47;;;;;;;6.63;4.95;;;19.40;62.70;;;;;;6189014;23;20156;-81
2021/11/05 03:19:13;;;;;;;7.03;5.40;;;19.40;62.90;;;;;;6214106;23;20169;-81
2021/11/05 03:21:39;;;;;;;7.18;5.20;;;19.40;63.30;;;;;;6217273;23;20135;-81
2021/11/05 03:24:05;;;;;;;7.25;5.18;;;19.40;62.60;;;;;;6216052;23;20446;-81
2021/11/05 03:26:30;;;;;;;6.45;5.35;;;19.40;63.00;;;;;;6191598;23;20625;-81
2021/11/05 03:28:56;;;;;;;6.55;4.80;;;19.40;63.00;;;;;;6216011;23;20127;-81
2021/11/05 03:31:22;;;;;;;7.80;5.13;;;19.40;62.70;;;;;;6190891;23;20139;-81
2021/11/05 03:33:47;;;;;;;6.63;5.05;;;19.40;62.50;;;;;;6215780;23;20148;-81
2021/11/05 03:36:13;;;;;;;6.78;4.72;;;19.40;62.70;;;;;;6191031;23;20142;-81
2021/11/05 03:38:39;;;;;;;7.72;5.15;;;19.40;62.70;;;;;;6191247;23;20150;-81
2021/11/05 03:41:05;;;;;;;6.50;4.78;;;19.40;63.00;;;;;;6190748;23;20150;-81
2021/11/05 03:43:31;;;;;;;7.75;5.35;;;19.40;62.90;;;;;;6191258;23;20184;-81
2021/11/05 03:45:56;;;;;;;7.35;5.13;;;19.40;63.40;;;;;;6215752;23;20224;-81
2021/11/05 03:48:22;;;;;;;7.07;5.18;;;19.40;63.30;;;;;;6216409;23;20153;-81
2021/11/05 03:50:48;;;;;;;6.50;4.88;;;19.40;62.90;;;;;;6215596;23;20224;-81
2021/11/05 03:53:14;;;;;;;7.32;5.25;;;19.40;62.90;;;;;;6191091;23;20566;-81
2021/11/05 03:55:40;;;;;;;7.25;5.30;;;19.30;63.40;;;;;;6215695;23;20570;-81
2021/11/05 03:58:06;;;;;;;6.72;5.15;;;19.40;63.60;;;;;;6215763;23;20126;-81
2021/11/05 04:00:32;;;;;;;5.72;4.75;;;19.40;63.10;;;;;;6216313;23;20642;-81
2021/11/05 04:02:57;;;;;;;6.18;4.93;;;19.40;62.90;;;;;;6217153;23;20135;-81
2021/11/05 04:05:23;;;;;;;6.85;5.15;;;19.40;62.80;;;;;;6215969;23;20186;-82
2021/11/05 04:07:51;;;;;;;7.55;5.10;;;19.40;63.30;;;;;;6215471;23;20193;-81
2021/11/05 04:10:17;;;;;;;5.68;4.30;;;19.30;62.40;;;;;;6215599;23;20126;-81
2021/11/05 04:12:42;;;;;;;6.80;4.47;;;19.40;61.70;;;;;;6217335;23;20134;-81
2021/11/05 04:15:08;;;;;;;6.90;4.93;;;19.40;61.80;;;;;;6217089;23;20135;-81
2021/11/05 04:17:35;;;;;;;6.50;5.30;;;19.40;61.60;;;;;;6190507;23;20150;-81
2021/11/05 04:20:02;;;;;;;7.75;5.00;;;19.40;60.70;;;;;;6215666;23;20131;-81
2021/11/05 04:22:28;;;;;;;5.68;4.40;;;19.40;60.70;;;;;;6215500;23;20135;-81
2021/11/05 04:24:54;;;;;;;4.68;3.85;;;19.40;60.80;;;;;;6216805;23;20508;-81
2021/11/05 04:27:20;;;;;;;6.35;4.80;;;19.40;60.80;;;;;;6217335;23;20162;-81
2021/11/05 04:29:47;;;;;;;6.55;5.00;;;19.40;61.80;;;;;;6216965;23;20134;-81
2021/11/05 04:32:12;;;;;;;5.38;4.63;;;19.40;61.60;;;;;;6215438;23;20126;-81
2021/11/05 04:34:38;;;;;;;5.82;4.63;;;19.40;61.30;;;;;;6215715;23;20214;-81
2021/11/05 04:37:04;;;;;;;5.53;4.38;;;19.40;61.70;;;;;;6190791;23;20240;-81
2021/11/05 04:39:30;;;;;;;7.00;5.22;;;19.40;62.00;;;;;;6216855;23;20162;-81
2021/11/05 04:41:55;;;;;;;5.75;4.15;;;19.40;62.20;;;;;;6215303;23;20180;-81
2021/11/05 04:44:21;;;;;;;5.60;4.20;;;19.30;62.00;;;;;;6215128;23;20142;-81
2021/11/05 04:46:47;;;;;;;5.75;4.43;;;19.40;61.70;;;;;;6215960;23;20166;-81
2021/11/05 04:49:13;;;;;;;5.57;4.35;;;19.40;61.90;;;;;;6215236;23;20134;-81
2021/11/05 04:51:39;;;;;;;6.70;4.60;;;19.40;62.20;;;;;;6215164;23;20142;-81
2021/11/05 04:54:06;;;;;;;5.97;4.57;;;19.40;62.20;;;;;;6215398;23;20147;-81
2021/11/05 04:56:32;;;;;;;6.00;4.80;;;19.40;62.20;;;;;;6215119;23;20134;-81
2021/11/05 04:58:58;;;;;;;6.15;4.38;;;19.40;62.40;;;;;;6215168;23;20134;-81
2021/11/05 05:01:24;;;;;;;6.20;4.57;;;19.30;62.40;;;;;;6215147;23;20130;-81
2021/11/05 05:03:50;;;;;;;6.57;4.60;;;19.30;62.20;;;;;;6215668;23;20173;-82
2021/11/05 05:06:16;;;;;;;6.47;4.70;;;19.40;62.10;;;;;;6215059;23;20601;-81
2021/11/05 05:08:42;;;;;;;6.00;4.40;;;19.40;62.20;;;;;;6215083;23;20501;-81
2021/11/05 05:11:07;;;;;;;6.38;4.75;;;19.40;62.50;;;;;;6215663;23;20241;-81
2021/11/05 05:13:33;;;;;;;5.72;4.65;;;19.40;62.60;;;;;;6189791;23;20177;-80
2021/11/05 05:15:58;;;;;;;6.50;4.90;;;19.40;62.30;;;;;;6216735;23;20141;-81
2021/11/05 05:18:24;;;;;;;6.47;4.82;;;19.40;62.10;;;;;;6215101;23;20161;-81
2021/11/05 05:20:50;;;;;;;5.97;4.55;;;19.40;62.20;;;;;;6216318;23;20134;-81
2021/11/05 05:23:16;;;;;;;5.40;4.68;;;19.50;62.20;;;;;;6214835;23;20130;-81
2021/11/05 05:25:41;;;;;;;5.07;4.22;;;19.50;61.20;;;;;;6214748;23;20192;-81
2021/11/05 05:28:07;;;;;;;6.18;4.45;;;19.50;61.50;;;;;;6216274;23;20142;-81
2021/11/05 05:30:33;;;;;;;7.20;4.30;;;19.50;61.20;;;;;;6214830;23;20146;-81
2021/11/05 05:32:59;;;;;;;5.78;4.35;;;19.50;61.80;;;;;;6189904;23;20197;-81
2021/11/05 05:35:25;;;;;;;5.88;4.47;;;19.60;61.40;;;;;;6215018;23;20597;-81
2021/11/05 05:37:53;;;;;;;5.43;4.20;;;19.60;61.10;;;;;;6215203;23;20130;-81
2021/11/05 05:40:20;;;;;;;5.82;4.13;;;19.60;62.00;;;;;;6214695;23;20454;-81
2021/11/05 05:42:45;;;;;;;5.60;4.40;;;19.50;61.20;;;;;;6214417;23;20138;-81
2021/11/05 05:45:11;;;;;;;6.05;4.43;;;19.60;61.00;;;;;;6214658;23;20166;-81
2021/11/05 05:47:38;;;;;;;5.35;4.13;;;19.60;60.70;;;;;;6190089;23;20281;-81
2021/11/05 05:50:05;;;;;;;6.22;4.57;;;19.60;60.50;;;;;;6189721;23;20603;-81
2021/11/05 05:52:30;;;;;;;5.20;4.05;;;19.60;60.50;;;;;;6216075;23;20134;-81
2021/11/05 05:54:56;;;;;;;5.32;3.95;;;19.60;60.30;;;;;;6190015;23;20161;-81
2021/11/05 05:57:22;;;;;;;6.18;4.40;;;19.70;60.40;;;;;;6214642;23;20527;-81
2021/11/05 05:59:47;;;;;;;5.30;4.03;;;19.70;60.30;;;;;;6189460;23;20154;-81
2021/11/05 06:02:13;;;;;;;6.32;4.75;;;19.70;60.60;;;;;;6214559;23;20224;-81
2021/11/05 06:04:39;;;;;;;5.95;4.70;;;19.70;60.40;;;;;;6214502;23;20173;-81
2021/11/05 06:07:05;;;;;;;6.53;4.38;;;19.70;60.50;;;;;;6214477;23;20261;-81
2021/11/05 06:09:30;;;;;;;5.60;4.40;;;19.70;61.20;;;;;;6214381;23;20194;-81
2021/11/05 06:11:56;;;;;;;5.75;4.40;;;19.70;60.50;;;;;;6214431;23;20141;-81
2021/11/05 06:14:21;;;;;;;5.28;4.00;;;19.70;60.70;;;;;;6214327;23;20131;-81
2021/11/05 06:16:47;;;;;;;4.85;3.97;;;19.70;60.30;;;;;;6214471;23;20173;-81
2021/11/05 06:19:13;;;;;;;4.93;4.07;;;19.70;60.30;;;;;;6216042;23;20157;-81
2021/11/05 06:21:38;;;;;;;5.30;4.47;;;19.70;60.40;;;;;;6215937;23;20138;-81
2021/11/05 06:24:04;;;;;;;5.38;4.10;;;19.70;60.60;;;;;;6189485;23;20204;-81
2021/11/05 06:26:30;;;;;;;5.55;4.10;;;19.80;60.30;;;;;;6214109;23;20200;-81
2021/11/05 06:28:58;;;;;;;5.45;4.00;;;19.70;60.50;;;;;;6214341;23;20131;-81
2021/11/05 06:31:23;;;;;;;5.45;4.00;;;19.70;60.40;;;;;;6214749;23;20154;-81
2021/11/05 06:33:49;;;;;;;5.05;3.83;;;19.70;60.50;;;;;;6214185;23;20142;-82
2021/11/05 06:36:15;;;;;;;5.40;4.20;;;19.70;60.50;;;;;;6214249;23;20149;-81
2021/11/05 06:38:41;;;;;;;5.65;4.40;;;19.70;60.50;;;;;;6214053;23;20153;-81
2021/11/05 06:41:07;;;;;;;5.70;4.30;;;19.80;60.50;;;;;;6189800;23;20635;-81
2021/11/05 06:43:32;;;;;;;5.55;4.32;;;19.70;60.40;;;;;;6214795;23;20230;-81
2021/11/05 06:45:58;;;;;;;5.40;4.22;;;19.70;60.40;;;;;;6214104;23;20170;-81
2021/11/05 06:48:24;;;;;;;6.43;4.50;;;19.70;60.00;;;;;;6214272;23;20466;-81
2021/11/05 06:50:55;;;;;;;5.43;4.18;;;19.70;60.40;;;;;;6214206;23;20473;-81
2021/11/05 06:53:21;;;;;;;4.72;3.92;;;19.70;60.40;;;;;;6190321;23;20529;-81
2021/11/05 06:55:47;;;;;;;5.18;4.18;;;19.70;60.30;;;;;;6215824;23;20145;-81
2021/11/05 06:58:13;;;;;;;5.75;4.40;;;19.80;60.20;;;;;;6215756;23;20462;-81
2021/11/05 07:00:39;;;;;;;6.47;4.55;;;19.70;60.40;;;;;;6214144;23;20137;-81
2021/11/05 07:03:05;;;;;;;5.15;4.00;;;19.80;60.10;;;;;;6214169;23;20210;-81
2021/11/05 07:05:30;;;;;;;5.50;4.05;;;19.70;60.30;;;;;;6213701;23;20250;-81
2021/11/05 07:07:56;;;;;;;5.82;4.20;;;19.80;60.30;;;;;;6213911;23;20645;-81
2021/11/05 07:10:22;;;;;;;5.40;4.10;;;19.80;60.30;;;;;;6217505;23;20154;-82
2021/11/05 07:12:51;;;;;;;5.80;4.28;;;19.80;60.20;;;;;;6192315;23;20146;-82
2021/11/05 07:15:18;;;;;;;4.97;3.70;;;19.80;60.10;;;;;;6216307;23;20130;-82
2021/11/05 07:17:44;;;;;;;6.10;4.00;;;19.80;59.90;;;;;;6217893;23;20459;-83
2021/11/05 07:20:11;;;;;;;5.07;3.95;;;19.80;60.00;;;;;;6218146;23;20126;-80
2021/11/05 07:22:37;;;;;;;6.20;4.38;;;19.80;60.00;;;;;;6217228;23;20158;-80
2021/11/05 07:25:05;;;;;;;6.32;4.43;;;19.80;60.20;;;;;;6217947;23;20177;-81
2021/11/05 07:27:33;;;;;;;6.75;4.55;;;19.70;60.50;;;;;;6217005;23;20146;-81
2021/11/05 07:29:59;;;;;;;6.15;4.38;;;19.80;61.10;;;;;;6216820;23;20133;-81
2021/11/05 07:32:24;;;;;;;6.97;4.35;;;19.70;61.10;;;;;;6215740;23;20150;-81
2021/11/05 07:34:54;;;;;;;5.63;4.38;;;19.70;61.60;;;;;;6216602;23;20158;-81
2021/11/05 07:37:20;;;;;;;6.68;4.57;;;19.70;61.80;;;;;;6215445;23;20146;-81
2021/11/05 07:39:47;;;;;;;9.73;4.60;;;19.70;62.10;;;;;;6190225;23;20242;-81
2021/11/05 07:42:13;;;;;;;9.27;4.70;;;19.60;62.40;;;;;;6214300;23;20133;-81
2021/11/05 07:44:39;;;;;;;5.60;4.07;;;19.70;62.60;;;;;;6214776;23;20127;-80
2021/11/05 07:47:06;;;;;;;6.78;4.30;;;19.70;62.70;;;;;;6215122;23;20520;-81
2021/11/05 07:49:32;;;;;;;5.28;4.30;;;19.60;62.60;;;;;;6215581;23;20130;-81
2021/11/05 07:51:58;;;;;;;6.22;4.20;;;19.70;62.60;;;;;;6217634;23;20137;-81
2021/11/05 07:54:23;;;;;;;5.57;4.28;;;19.70;63.80;;;;;;6214199;23;20127;-82
2021/11/05 07:56:51;;;;;;;6.97;4.35;;;19.70;63.20;;;;;;6213458;23;20138;-81
2021/11/05 07:59:17;;;;;;;6.00;4.50;;;19.60;63.50;;;;;;6213128;23;20129;-81
2021/11/05 08:01:42;;;;;;;7.10;4.10;;;19.70;63.90;;;;;;6214841;23;20458;-81
2021/11/05 08:04:08;;;;;;;6.00;4.60;;;19.60;63.60;;;;;;6188919;23;20135;-81
2021/11/05 08:06:34;;;;;;;5.95;4.10;;;19.60;63.40;;;;;;6214665;23;20166;-82
2021/11/05 08:09:00;;;;;;;6.55;4.40;;;19.60;62.80;;;;;;6215363;23;20197;-82
2021/11/05 08:11:29;;;;;;;6.55;4.10;;;19.60;63.40;;;;;;6217055;23;20162;-82
2021/11/05 08:13:55;;;;;;;7.07;4.43;;;19.60;63.30;;;;;;6217211;23;20221;-81
2021/11/05 08:16:21;;;;;;;6.03;4.00;;;19.60;62.40;;;;;;6215522;23;20161;-81
2021/11/05 08:18:47;;;;;;;5.03;4.00;;;19.60;63.20;;;;;;6215394;23;20574;-82
2021/11/05 08:21:12;;;;;;;6.20;4.38;;;19.60;62.30;;;;;;6215266;23;20146;-81
2021/11/05 08:23:38;;;;;;;6.53;4.30;;;19.60;62.00;;;;;;6216479;23;20137;-81
2021/11/05 08:26:06;;;;;;;5.93;4.18;;;19.60;61.90;;;;;;6216646;23;20176;-81
2021/11/05 08:28:32;;;;;;;6.03;4.32;;;19.60;62.50;;;;;;6216897;23;20138;-81
2021/11/05 08:30:58;;;;;;;5.40;4.30;;;19.60;62.90;;;;;;6190274;23;20146;-82
2021/11/05 08:33:23;;;;;;;5.78;4.15;;;19.60;62.20;;;;;;6215468;23;20127;-81
2021/11/05 08:35:51;;;;;;;4.80;3.90;;;19.60;62.20;;;;;;6216933;23;20134;-81
2021/11/05 08:38:19;;;;;;;5.22;3.80;;;19.60;62.30;;;;;;6215110;23;20150;-81
2021/11/05 08:40:46;;;;;;;5.47;4.05;;;19.60;62.40;;;;;;6215753;23;20139;-81
2021/11/05 08:43:12;;;;;;;6.00;4.30;;;19.60;63.30;;;;;;6190178;23;20153;-81
2021/11/05 08:45:38;;;;;;;5.55;4.32;;;19.70;64.70;;;;;;6215537;23;20178;-81
2021/11/05 08:48:05;;;;;;;5.00;4.05;;;19.60;64.10;;;;;;6215300;23;20396;-81
2021/11/05 08:50:31;;;;;;;5.82;4.05;;;19.60;64.30;;;;;;6215268;23;20131;-81
2021/11/05 08:52:57;;;;;;;5.60;4.28;;;19.60;64.30;;;;;;6215344;23;20408;-82
2021/11/05 08:55:23;;;;;;;5.20;4.25;;;19.70;64.10;;;;;;6214996;23;20154;-81
2021/11/05 08:57:48;;;;;;;6.93;4.00;;;19.60;63.00;;;;;;6216938;23;20130;-81
2021/11/05 09:00:17;;;;;;;5.22;4.05;;;19.60;64.00;;;;;;6217387;23;20161;-81
2021/11/05 09:02:52;;;;;;;5.63;4.32;;;19.60;64.60;;;;;;6191773;23;20142;-83
2021/11/05 09:05:19;;;;;;;7.20;4.50;;;19.60;64.10;;;;;;6083328;23;20226;-81
2021/11/05 09:07:48;;;;;;;6.80;4.07;;;19.60;64.10;;;;;;6156870;23;20190;-83
2021/11/05 09:10:14;;;;;;;4.53;3.80;;;19.60;63.40;;;;;;6156826;23;20144;-82
2021/11/05 09:12:40;;;;;;;4.97;3.70;;;19.60;62.90;;;;;;6158134;23;20180;-82
2021/11/05 09:15:06;;;;;;;5.55;4.25;;;19.60;62.70;;;;;;6105884;23;20131;-82
2021/11/05 09:17:33;;;;;;;5.15;3.80;;;19.70;63.40;;;;;;6129364;23;20154;-82
2021/11/05 09:19:58;;;;;;;5.78;4.50;;;19.60;63.30;;;;;;6153074;23;20227;-82
2021/11/05 09:22:24;;;;;;;6.28;4.32;;;19.60;64.00;;;;;;6103192;23;20151;-82
2021/11/05 09:24:50;;;;;;;4.78;3.65;;;19.60;63.90;;;;;;6152423;23;20159;-82
2021/11/05 09:27:17;;;;;;;5.65;3.95;;;19.70;64.00;;;;;;6127898;23;20500;-82
2021/11/05 09:29:42;;;;;;;5.13;4.03;;;19.60;63.60;;;;;;6154089;23;20232;-82
2021/11/05 09:32:08;;;;;;;5.70;4.22;;;19.70;63.60;;;;;;6129773;23;20159;-82
2021/11/05 09:34:34;;;;;;;5.40;4.10;;;19.70;63.60;;;;;;6129247;23;20147;-82
2021/11/05 09:37:00;;;;;;;5.20;3.95;;;19.60;63.40;;;;;;6104959;23;20467;-82
2021/11/05 09:39:27;;;;;;;4.40;3.60;;;19.60;63.30;;;;;;6129524;23;20135;-82
2021/11/05 09:41:53;;;;;;;5.38;4.35;;;19.70;63.40;;;;;;6105463;23;20234;-83
2021/11/05 09:44:19;;;;;;;4.72;3.88;;;19.70;63.20;;;;;;6153721;23;20174;-82
2021/11/05 09:46:45;;;;;;;6.00;4.22;;;19.70;63.10;;;;;;6153580;23;20702;-82
2021/11/05 09:49:10;;;;;;;6.90;4.18;;;19.70;63.30;;;;;;6153882;23;20603;-82
2021/11/05 09:51:36;;;;;;;5.85;4.20;;;19.60;63.20;;;;;;6129324;23;20191;-82
2021/11/05 09:54:02;;;;;;;6.15;4.10;;;19.70;63.30;;;;;;6153797;23;20623;-82
2021/11/05 09:56:28;;;;;;;6.78;4.03;;;19.80;63.20;;;;;;6153612;23;20267;-82
2021/11/05 09:58:53;;;;;;;6.03;4.10;;;19.60;63.20;;;;;;6104786;23;20140;-82
2021/11/05 10:01:19;;;;;;;4.90;3.85;;;19.70;62.70;;;;;;6115921;23;20578;-82
2021/11/05 10:03:45;;;;;;;4.97;3.83;;;19.70;62.70;;;;;;6185957;23;20189;-82
2021/11/05 10:06:13;;;;;;;5.40;4.00;;;19.70;62.70;;;;;;6184206;23;20174;-82
2021/11/05 10:08:39;;;;;;;5.30;3.95;;;19.70;63.00;;;;;;6184371;23;20244;-82
2021/11/05 10:11:25;;;;;;;5.43;3.88;;;19.80;63.00;;;;;;6184566;23;20139;-82
2021/11/05 10:13:52;;;;;;;5.95;4.00;;;19.80;62.80;;;;;;6186304;23;20250;-82
2021/11/05 10:16:19;;;;;;;6.25;4.07;;;19.70;62.70;;;;;;6160019;23;20143;-82
2021/11/05 10:19:02;;;;;;;5.10;3.92;;;19.70;62.60;;;;;;6184397;23;20134;-82
2021/11/05 10:21:38;;;;;;;5.45;3.90;;;19.70;62.90;;;;;;6184467;23;20223;-82
2021/11/05 10:24:06;;;;;;;5.65;4.10;;;19.80;63.00;;;;;;6184261;23;20153;-82
2021/11/05 10:26:33;;;;;;;5.03;3.67;;;19.80;63.00;;;;;;6184163;23;20250;-82
2021/11/05 10:28:59;;;;;;;6.43;4.03;;;19.80;62.50;;;;;;6160206;23;20586;-81
2021/11/05 10:31:26;;;;;;;5.07;3.50;;;19.80;62.90;;;;;;6185367;23;20162;-82
2021/11/05 10:33:52;;;;;;;5.18;3.70;;;19.80;61.60;;;;;;6187321;23;20131;-83
2021/11/05 10:36:19;;;;;;;4.70;3.40;;;19.90;61.40;;;;;;6161062;23;20142;-82
2021/11/05 10:38:50;;;;;;;4.75;3.60;;;19.80;62.40;;;;;;6185661;23;20470;-82
2021/11/05 10:41:19;;;;;;;4.03;3.20;;;19.80;61.70;;;;;;6186245;23;20158;-82
2021/11/05 10:43:48;;;;;;;4.15;3.40;;;19.70;61.40;;;;;;6159921;23;20142;-82
2021/11/05 10:46:40;;;;;;;5.90;4.28;;;19.90;61.60;;;;;;6159729;23;20606;-82
2021/11/05 10:49:25;;;;;;;4.82;3.72;;;19.80;61.80;;;;;;6185544;23;20138;-82
2021/11/05 10:51:51;;;;;;;4.57;3.60;;;19.80;62.00;;;;;;6184870;23;20127;-82
2021/11/05 10:54:17;;;;;;;5.38;3.88;;;19.80;61.70;;;;;;6184327;23;20189;-82
2021/11/05 10:56:44;;;;;;;7.20;4.35;;;19.90;62.30;;;;;;6184138;23;20139;-82
2021/11/05 10:59:10;;;;;;;5.38;4.05;;;19.90;62.80;;;;;;6184525;23;20126;-82
2021/11/05 11:01:38;;;;;;;6.60;3.90;;;19.80;62.30;;;;;;6184819;23;20146;-82
2021/11/05 11:04:06;;;;;;;5.88;4.10;;;19.90;62.60;;;;;;6159646;23;20833;-83
2021/11/05 11:06:34;;;;;;;4.65;3.47;;;19.80;62.70;;;;;;6186196;23;20644;-82
2021/11/05 11:09:04;;;;;;;4.40;3.42;;;19.90;61.80;;;;;;6187835;23;20217;-83
2021/11/05 11:11:32;;;;;;;4.35;3.60;;;20.00;62.30;;;;;;6164653;23;20139;-83
2021/11/05 11:14:18;;;;;;;4.10;3.22;;;19.80;62.10;;;;;;6189839;23;20192;-84
2021/11/05 11:16:58;;;;;;;6.43;4.13;;;19.90;62.50;;;;;;6193247;23;20143;-83
2021/11/05 11:19:27;;;;;;;5.03;3.92;;;19.90;62.80;;;;;;6193418;23;20166;-83
2021/11/05 11:21:55;;;;;;;4.28;3.60;;;19.90;62.80;;;;;;6193213;23;20187;-84
2021/11/05 11:24:23;;;;;;;6.13;3.85;;;19.90;62.90;;;;;;6167715;23;20226;-83
2021/11/05 11:26:53;;;;;;;5.13;3.65;;;19.90;62.10;;;;;;6191437;23;20182;-83
2021/11/05 11:29:21;;;;;;;4.45;3.47;;;19.80;62.50;;;;;;6192477;23;20131;-83
2021/11/05 11:31:48;;;;;;;4.25;3.40;;;19.90;62.30;;;;;;6165006;23;20574;-84
2021/11/05 11:34:14;;;;;;;5.32;3.50;;;19.90;62.30;;;;;;6194178;23;20128;-83
2021/11/05 11:36:41;;;;;;;5.55;3.80;;;19.90;62.90;;;;;;6192361;23;20131;-84
2021/11/05 11:39:11;;;;;;;4.50;3.67;;;19.90;63.00;;;;;;6192660;23;20139;-83
2021/11/05 11:41:39;;;;;;;3.92;3.38;;;19.80;62.70;;;;;;6167185;23;20135;-83
2021/11/05 11:44:12;;;;;;;4.75;3.72;;;19.90;62.80;;;;;;6193171;23;20423;-84
2021/11/05 11:47:02;;;;;;;4.68;3.85;;;19.80;63.40;;;;;;6193509;23;20163;-84
2021/11/05 11:49:46;;;;;;;6.07;3.97;;;19.90;63.30;;;;;;6193196;23;20207;-83
2021/11/05 11:52:30;;;;;;;5.03;3.65;;;19.80;63.50;;;;;;6194124;23;20142;-83
2021/11/05 11:55:13;;;;;;;5.75;4.05;;;19.80;63.40;;;;;;6193183;23;20138;-83
2021/11/05 11:57:39;;;;;;;6.97;4.10;;;19.80;63.60;;;;;;6195402;23;20133;-83
2021/11/05 12:00:11;;;;;;;6.07;3.80;;;19.80;63.80;;;;;;6195716;23;20563;-83
2021/11/05 12:02:39;;;;;;;5.18;3.40;;;19.80;63.60;;;;;;6192906;23;20555;-83
2021/11/05 12:05:37;;;;;;;7.00;4.03;;;19.80;62.90;;;;;;6164137;23;20142;-83
2021/11/05 12:08:30;;;;;;;6.93;3.92;;;19.80;64.00;;;;;;6167951;23;20606;-84
2021/11/05 12:11:23;;;;;;;5.53;3.65;;;19.80;64.30;;;;;;6189986;23;20179;-83
2021/11/05 12:13:52;;;;;;;5.55;3.58;;;19.80;64.10;;;;;;6189580;23;20139;-83
2021/11/05 12:16:21;;;;;;;5.47;3.88;;;19.80;63.10;;;;;;6187804;23;20146;-83
2021/11/05 12:19:07;;;;;;;4.82;3.60;;;19.70;63.30;;;;;;6189022;23;20131;-84
2021/11/05 12:21:36;;;;;;;4.70;3.67;;;19.80;63.50;;;;;;6168463;23;20174;-83
2021/11/05 12:24:21;;;;;;;5.32;3.75;;;19.80;62.80;;;;;;6189719;23;20582;-84
2021/11/05 12:26:57;;;;;;;5.63;3.60;;;19.80;63.20;;;;;;6193075;23;20167;-84
2021/11/05 12:29:50;;;;;;;6.15;3.92;;;19.80;63.20;;;;;;6165515;23;20582;-83
2021/11/05 12:32:25;;;;;;;5.38;3.45;;;19.80;63.50;;;;;;6190042;23;20141;-83
2021/11/05 12:34:56;;;;;;;4.47;3.40;;;19.80;63.60;;;;;;6189037;23;20209;-84
2021/11/05 12:37:39;;;;;;;7.50;4.00;;;19.80;63.80;;;;;;6190821;23;20693;-83
2021/11/05 12:40:27;;;;;;;6.47;3.78;;;19.80;64.20;;;;;;6190828;23;20151;-82
2021/11/05 12:42:56;;;;;;;7.05;3.65;;;19.80;63.80;;;;;;6190255;23;20229;-85
2021/11/05 12:45:23;;;;;;;8.20;4.03;;;19.80;63.60;;;;;;6193540;23;20151;-83
2021/11/05 12:47:54;;;;;;;6.05;3.90;;;19.80;63.10;;;;;;6194715;23;20135;-83
2021/11/05 12:50:23;;;;;;;7.32;4.03;;;19.80;63.10;;;;;;6167530;23;20166;-84